Time;durP1;ratioP1;P1;durP2;ratioP2;P2;SDS_P1;SDS_P2;PMS_P1;PMS_P2;Temp;Humidity;BMP_temperature;BMP_pressure;BME280_temperature;BME280_humidity;BME280_pressure;Samples;Min_cycle;Max_cycle;Signal;HPM_P1;HPM_P2
2022/05/29 00:00:33;;;;;;;17.27;7.30;;;;;;;14.90;100.00;101717.66;5014413;28;20053;-54
2022/05/29 00:02:59;;;;;;;19.13;6.60;;;;;;;14.62;100.00;101709.63;5024158;28;20290;-55
2022/05/29 00:05:24;;;;;;;18.73;7.40;;;;;;;14.53;100.00;101711.66;5030689;28;20040;-57
2022/05/29 00:07:50;;;;;;;32.20;10.90;;;;;;;14.17;100.00;101715.41;5010131;28;20067;-56
2022/05/29 00:10:16;;;;;;;17.10;7.65;;;;;;;14.03;100.00;101711.81;5014201;28;20038;-56
2022/05/29 00:12:43;;;;;;;17.63;6.55;;;;;;;14.33;100.00;101714.28;5030896;28;20093;-53
2022/05/29 00:15:10;;;;;;;26.80;8.57;;;;;;;14.20;100.00;101706.97;5030360;28;20044;-55
2022/05/29 00:17:36;;;;;;;15.40;6.05;;;;;;;14.32;100.00;101701.84;5030280;28;20073;-53
2022/05/29 00:20:04;;;;;;;10.37;4.07;;;;;;;14.14;100.00;101710.44;5021741;28;20046;-56
2022/05/29 00:22:31;;;;;;;19.33;6.40;;;;;;;14.30;100.00;101702.03;5021661;28;20061;-51
2022/05/29 00:24:57;;;;;;;11.43;4.53;;;;;;;14.43;100.00;101698.59;5029118;28;20044;-54
2022/05/29 00:27:23;;;;;;;21.03;4.00;;;;;;;14.20;100.00;101702.41;5028103;28;20093;-57
2022/05/29 00:29:49;;;;;;;11.85;3.60;;;;;;;14.39;100.00;101697.31;5037930;28;20263;-55
2022/05/29 00:32:16;;;;;;;17.50;3.65;;;;;;;14.16;100.00;101694.91;5026016;28;20106;-55
2022/05/29 00:34:41;;;;;;;10.95;3.65;;;;;;;14.00;100.00;101694.22;5027220;28;20101;-55
2022/05/29 00:37:09;;;;;;;11.20;3.50;;;;;;;13.99;100.00;101697.09;5029237;28;20045;-54
2022/05/29 00:39:35;;;;;;;18.50;5.47;;;;;;;13.41;100.00;101698.91;5030257;28;20030;-55
2022/05/29 00:42:06;;;;;;;60.33;20.77;;;;;;;13.38;100.00;101693.09;5021794;28;20064;-54
2022/05/29 00:44:33;;;;;;;18.42;6.13;;;;;;;12.99;100.00;101693.34;5019276;28;20034;-55
2022/05/29 00:47:06;;;;;;;15.25;4.88;;;;;;;12.70;100.00;101686.22;5026971;28;20049;-53
2022/05/29 00:49:34;;;;;;;12.95;3.65;;;;;;;12.75;100.00;101684.63;4995629;28;20034;-54
2022/05/29 00:52:05;;;;;;;14.32;4.78;;;;;;;12.65;100.00;101683.28;5025446;28;20041;-55
2022/05/29 00:54:42;;;;;;;11.18;3.50;;;;;;;12.94;100.00;101681.53;5017959;28;20050;-54
2022/05/29 00:57:12;;;;;;;10.25;2.97;;;;;;;13.46;100.00;101676.88;5023627;28;20030;-55
2022/05/29 00:59:38;;;;;;;14.82;3.72;;;;;;;13.30;100.00;101684.16;5026824;28;20039;-51
2022/05/29 01:02:04;;;;;;;14.20;4.00;;;;;;;12.81;100.00;101671.47;5019231;28;20093;-55
2022/05/29 01:04:32;;;;;;;11.77;3.30;;;;;;;12.90;100.00;101667.63;5021223;28;20034;-55
2022/05/29 01:07:02;;;;;;;18.27;3.70;;;;;;;12.83;100.00;101674.78;5024719;28;20042;-56
2022/05/29 01:09:29;;;;;;;9.93;3.67;;;;;;;12.71;100.00;101669.09;5016948;28;20089;-54
2022/05/29 01:12:11;;;;;;;12.75;3.92;;;;;;;12.82;100.00;101665.94;5028900;28;20097;-58
2022/05/29 01:14:44;;;;;;;9.95;3.03;;;;;;;13.53;100.00;101658.94;5020323;28;20038;-56
2022/05/29 01:17:29;;;;;;;11.20;3.60;;;;;;;13.89;100.00;101662.50;5025538;28;20089;-56
2022/05/29 01:20:13;;;;;;;15.75;3.28;;;;;;;14.27;100.00;101667.47;5017205;28;20042;-56
2022/05/29 01:22:42;;;;;;;9.45;2.92;;;;;;;14.13;100.00;101663.03;5022738;28;20046;-53
2022/05/29 01:25:49;;;;;;;14.25;3.38;;;;;;;13.93;100.00;101657.56;5021332;28;20042;-56
2022/05/29 01:28:40;;;;;;;9.02;3.75;;;;;;;13.57;100.00;101649.47;5030099;28;20275;-57
2022/05/29 01:31:14;;;;;;;11.80;3.15;;;;;;;13.49;100.00;101649.63;5025242;28;20064;-55
2022/05/29 01:33:49;;;;;;;10.57;3.70;;;;;;;13.20;100.00;101649.56;5015127;28;20043;-51
2022/05/29 01:36:33;;;;;;;13.75;3.05;;;;;;;13.38;100.00;101644.72;5033115;28;20049;-55
2022/05/29 01:39:16;;;;;;;15.32;3.80;;;;;;;13.49;100.00;101646.94;5032405;28;20042;-56
2022/05/29 01:41:53;;;;;;;9.25;2.90;;;;;;;13.73;100.00;101647.50;5020271;28;20048;-54
2022/05/29 01:44:30;;;;;;;7.65;3.33;;;;;;;13.45;100.00;101643.78;5022041;28;20090;-53
2022/05/29 01:47:06;;;;;;;11.45;3.15;;;;;;;13.74;100.00;101633.88;5028594;28;20095;-56
2022/05/29 01:49:42;;;;;;;12.05;3.15;;;;;;;13.90;100.00;101634.56;5033020;28;20034;-54
2022/05/29 01:52:13;;;;;;;12.60;4.30;;;;;;;13.80;100.00;101626.88;5023686;28;20034;-55
2022/05/29 01:55:03;;;;;;;13.10;3.83;;;;;;;13.48;100.00;101629.16;5009971;28;20039;-55
2022/05/29 01:57:37;;;;;;;18.90;3.65;;;;;;;13.74;100.00;101620.44;5014844;28;20035;-54
2022/05/29 02:00:11;;;;;;;14.50;3.22;;;;;;;13.98;100.00;101628.22;5032814;28;20059;-52
2022/05/29 02:02:48;;;;;;;13.18;3.28;;;;;;;13.82;100.00;101619.44;5032768;28;20038;-52
2022/05/29 02:05:37;;;;;;;16.30;3.10;;;;;;;13.37;100.00;101617.03;5024430;28;20046;-51
2022/05/29 02:08:14;;;;;;;10.57;3.40;;;;;;;13.67;100.00;101621.41;5024080;28;20049;-53
2022/05/29 02:10:51;;;;;;;14.75;3.65;;;;;;;14.00;100.00;101626.16;5026413;28;20051;-55
2022/05/29 02:13:39;;;;;;;13.77;3.58;;;;;;;13.85;100.00;101620.91;5014988;28;20041;-54
2022/05/29 02:16:05;;;;;;;;;;;;;;;13.82;100.00;101618.63;5016617;28;20038;-55
2022/05/29 02:18:39;;;;;;;15.70;3.73;;;;;;;13.91;100.00;101617.41;5015918;28;19956;-55
2022/05/29 02:21:34;;;;;;;13.68;3.45;;;;;;;14.15;100.00;101617.94;5027507;28;20043;-56
2022/05/29 02:24:05;;;;;;;8.82;2.97;;;;;;;14.32;100.00;101613.88;5023430;28;20109;-55
2022/05/29 02:26:35;;;;;;;13.10;3.75;;;;;;;14.10;100.00;101609.66;5005979;28;20045;-53
2022/05/29 02:29:09;;;;;;;8.45;3.20;;;;;;;14.35;100.00;101612.66;5031629;28;20093;-52
2022/05/29 02:32:13;;;;;;;9.05;3.28;;;;;;;14.27;100.00;101604.75;5018670;28;20068;-55
2022/05/29 02:35:04;;;;;;;19.17;3.78;;;;;;;13.76;100.00;101606.78;5017618;28;20049;-55
2022/05/29 02:37:53;;;;;;;10.55;3.70;;;;;;;14.00;100.00;101607.31;5031025;28;20037;-53
2022/05/29 02:40:41;;;;;;;17.05;3.90;;;;;;;14.23;100.00;101598.97;5009397;28;20045;-53
2022/05/29 02:43:10;;;;;;;;;;;;;;;14.19;100.00;101593.13;5013987;28;20060;-56
2022/05/29 02:46:03;;;;;;;7.25;3.08;;;;;;;13.83;100.00;101599.59;5030745;28;19913;-56
2022/05/29 02:48:46;;;;;;;12.48;3.88;;;;;;;14.09;100.00;101587.31;5019972;28;20041;-54
2022/05/29 02:51:34;;;;;;;85.15;35.38;;;;;;;14.21;100.00;101590.25;5030593;28;20106;-55
2022/05/29 02:54:01;;;;;;;;;;;;;;;14.20;100.00;101594.81;5032265;28;20029;-55
2022/05/29 02:56:28;;;;;;;20.80;4.65;;;;;;;14.15;100.00;101591.03;5032123;28;19981;-55
2022/05/29 02:58:56;;;;;;;12.73;3.88;;;;;;;14.26;100.00;101605.78;5031854;28;20071;-55
2022/05/29 03:01:38;;;;;;;11.25;3.90;;;;;;;14.27;100.00;101596.69;5031589;28;20037;-54
2022/05/29 03:04:29;;;;;;;14.98;4.85;;;;;;;14.31;100.00;101603.34;5031891;28;20037;-55
2022/05/29 03:07:21;;;;;;;13.80;4.43;;;;;;;14.61;100.00;101598.44;5032499;28;20083;-53
2022/05/29 03:09:57;;;;;;;13.52;5.20;;;;;;;14.45;100.00;101599.63;5031761;28;20063;-55
2022/05/29 03:12:56;;;;;;;15.13;5.50;;;;;;;14.41;100.00;101595.69;5030169;28;20038;-54
2022/05/29 03:15:38;;;;;;;14.27;5.88;;;;;;;13.86;100.00;101593.00;5031721;28;20093;-55
2022/05/29 03:18:13;;;;;;;20.10;4.78;;;;;;;13.50;100.00;101578.72;5031865;28;20026;-52
2022/05/29 03:21:00;;;;;;;11.35;4.45;;;;;;;13.80;100.00;101583.03;5031688;28;20050;-55
2022/05/29 03:23:41;;;;;;;;;;;;;;;13.78;100.00;101580.53;5031145;28;20033;-56
2022/05/29 03:26:20;;;;;;;9.30;3.92;;;;;;;14.93;100.00;101580.91;5022987;28;19918;-54
2022/05/29 03:28:52;;;;;;;13.65;4.70;;;;;;;14.90;100.00;101579.47;5018869;28;20067;-53
2022/05/29 03:31:25;;;;;;;14.07;5.03;;;;;;;14.36;100.00;101575.81;5016421;28;20062;-55
2022/05/29 03:33:51;;;;;;;15.68;4.50;;;;;;;14.31;100.00;101579.13;5024572;28;20034;-54
2022/05/29 03:36:17;;;;;;;17.13;4.40;;;;;;;14.41;100.00;101587.63;5021664;28;20044;-53
2022/05/29 03:38:46;;;;;;;11.23;5.13;;;;;;;14.45;100.00;101578.09;5025593;28;20041;-56
2022/05/29 03:41:15;;;;;;;13.38;4.65;;;;;;;14.66;100.00;101597.81;5031202;28;20052;-55
2022/05/29 03:43:42;;;;;;;17.42;5.57;;;;;;;14.79;100.00;101596.25;5014433;28;20038;-54
2022/05/29 03:46:07;;;;;;;18.15;5.80;;;;;;;15.09;100.00;101602.03;5022785;28;20042;-55
2022/05/29 03:48:34;;;;;;;11.57;5.00;;;;;;;14.92;100.00;101593.53;5021138;28;20384;-52
2022/05/29 03:51:04;;;;;;;22.13;5.40;;;;;;;14.99;100.00;101594.41;5015599;28;20050;-56
2022/05/29 03:53:30;;;;;;;18.90;6.43;;;;;;;14.95;100.00;101581.53;5019129;28;20042;-55
2022/05/29 03:55:55;;;;;;;12.17;5.27;;;;;;;14.74;100.00;101583.38;5025923;28;20110;-54
2022/05/29 03:58:21;;;;;;;18.85;5.80;;;;;;;14.43;100.00;101582.06;5019006;28;20026;-54
2022/05/29 04:00:47;;;;;;;16.03;5.80;;;;;;;14.53;100.00;101569.03;5018009;28;20042;-54
2022/05/29 04:03:12;;;;;;;17.10;6.40;;;;;;;14.47;100.00;101573.34;5023018;28;20286;-53
2022/05/29 04:05:38;;;;;;;25.17;6.70;;;;;;;14.74;100.00;101575.31;5031129;28;20026;-54
2022/05/29 04:13:42;;;;;;;14.95;6.25;;;;;;;14.90;100.00;101566.84;5025431;28;20115;-54
2022/05/29 04:16:09;;;;;;;27.27;7.32;;;;;;;14.77;100.00;101569.50;5018612;28;20044;-52
2022/05/29 04:18:35;;;;;;;14.80;5.93;;;;;;;14.66;100.00;101568.22;5018617;28;20057;-55
2022/05/29 04:21:00;;;;;;;14.70;5.43;;;;;;;14.72;100.00;101558.53;5023855;28;20101;-50
2022/05/29 04:23:26;;;;;;;13.18;5.60;;;;;;;14.69;100.00;101554.34;5012443;28;20059;-56
2022/05/29 04:25:52;;;;;;;23.40;6.63;;;;;;;14.92;100.00;101558.53;5029715;28;20066;-51
2022/05/29 04:28:18;;;;;;;14.80;5.65;;;;;;;14.32;100.00;101556.56;5014177;28;20038;-54
2022/05/29 04:30:44;;;;;;;18.70;6.93;;;;;;;14.24;100.00;101559.41;5029737;28;20035;-51
2022/05/29 04:33:10;;;;;;;15.00;6.28;;;;;;;14.04;100.00;101560.16;5031428;28;20060;-53
2022/05/29 04:35:41;;;;;;;19.27;6.28;;;;;;;14.54;100.00;101548.34;5019751;28;20071;-52
2022/05/29 04:38:08;;;;;;;18.63;7.30;;;;;;;14.92;100.00;101542.38;5025652;28;20034;-56
2022/05/29 04:40:36;;;;;;;15.40;6.30;;;;;;;14.89;100.00;101546.31;5026247;28;20034;-53
2022/05/29 04:43:04;;;;;;;18.70;5.88;;;;;;;14.71;100.00;101541.53;5033771;28;20053;-53
2022/05/29 04:45:31;;;;;;;20.48;6.18;;;;;;;14.15;100.00;101543.47;5034099;28;20052;-53
2022/05/29 04:47:57;;;;;;;21.52;6.18;;;;;;;14.37;100.00;101542.47;5033760;28;20052;-52
2022/05/29 04:50:22;;;;;;;19.23;6.20;;;;;;;14.54;100.00;101545.66;5033731;28;20034;-52
2022/05/29 04:52:50;;;;;;;13.77;5.53;;;;;;;14.42;100.00;101546.22;5034035;28;20034;-52
2022/05/29 04:55:18;;;;;;;11.32;4.80;;;;;;;14.66;100.00;101541.28;5016384;28;20056;-51
2022/05/29 04:57:43;;;;;;;13.73;5.15;;;;;;;14.87;100.00;101542.16;5031390;28;20041;-51
2022/05/29 05:00:10;;;;;;;14.95;4.97;;;;;;;14.79;100.00;101537.00;5033687;28;20038;-52
2022/05/29 05:02:36;;;;;;;14.50;5.32;;;;;;;14.66;100.00;101535.09;5033849;28;20062;-54
2022/05/29 05:05:03;;;;;;;15.02;4.88;;;;;;;14.87;100.00;101532.22;5013744;28;20038;-52
2022/05/29 05:07:29;;;;;;;12.43;5.53;;;;;;;14.78;100.00;101536.16;5030220;28;20046;-54
2022/05/29 05:09:54;;;;;;;15.43;5.10;;;;;;;14.86;100.00;101537.81;5033486;28;20072;-53
2022/05/29 05:12:20;;;;;;;16.67;5.93;;;;;;;14.91;100.00;101535.34;5033547;28;20278;-55
2022/05/29 05:14:46;;;;;;;16.75;5.70;;;;;;;14.69;100.00;101532.81;5033846;28;20102;-54
2022/05/29 05:17:11;;;;;;;14.53;4.70;;;;;;;14.79;100.00;101529.75;5026959;28;20046;-55
2022/05/29 05:19:37;;;;;;;20.03;5.83;;;;;;;14.65;100.00;101526.19;5033631;28;20041;-55
2022/05/29 05:22:04;;;;;;;11.82;5.68;;;;;;;15.28;100.00;101530.34;5033506;28;20030;-52
2022/05/29 05:24:33;;;;;;;16.27;5.82;;;;;;;15.33;100.00;101533.22;5033443;28;20069;-51
2022/05/29 05:26:58;;;;;;;13.80;6.07;;;;;;;14.96;100.00;101527.44;5033455;28;20034;-53
2022/05/29 05:29:25;;;;;;;12.17;5.27;;;;;;;14.87;100.00;101529.53;5033014;28;20120;-52
2022/05/29 05:31:51;;;;;;;13.50;4.95;;;;;;;14.87;100.00;101526.81;5026872;28;20055;-50
2022/05/29 05:34:18;;;;;;;16.77;5.45;;;;;;;15.15;100.00;101523.09;5033389;28;20040;-53
2022/05/29 05:36:43;;;;;;;13.95;6.45;;;;;;;14.94;100.00;101518.75;5033368;28;20034;-54
2022/05/29 05:39:08;;;;;;;18.27;6.40;;;;;;;15.20;100.00;101520.59;5033389;28;20094;-54
2022/05/29 05:41:35;;;;;;;19.17;7.75;;;;;;;15.19;100.00;101520.78;5025996;28;20071;-51
2022/05/29 05:44:02;;;;;;;17.57;5.97;;;;;;;15.34;100.00;101520.59;5027215;28;20093;-52
2022/05/29 05:46:28;;;;;;;16.08;6.10;;;;;;;15.26;100.00;101518.94;5032983;28;20283;-52
2022/05/29 05:48:54;;;;;;;12.87;6.03;;;;;;;15.47;100.00;101522.44;5018802;28;20073;-54
2022/05/29 05:51:20;;;;;;;18.35;5.75;;;;;;;15.41;100.00;101525.94;5026045;28;20038;-50
2022/05/29 05:53:45;;;;;;;14.17;5.33;;;;;;;15.71;100.00;101525.47;5032305;28;20057;-52
2022/05/29 05:56:14;;;;;;;12.77;5.20;;;;;;;15.89;100.00;101525.59;5032950;28;20299;-54
2022/05/29 05:58:42;;;;;;;13.87;5.27;;;;;;;15.76;100.00;101529.16;5033128;28;20066;-55
2022/05/29 06:01:11;;;;;;;11.20;5.03;;;;;;;15.51;100.00;101529.03;5016431;28;20284;-54
2022/05/29 06:03:37;;;;;;;13.57;3.67;;;;;;;15.96;100.00;101525.56;5027775;28;20268;-55
2022/05/29 06:06:02;;;;;;;18.48;4.35;;;;;;;15.21;100.00;101524.09;5015955;28;20264;-58
2022/05/29 06:08:28;;;;;;;10.70;3.57;;;;;;;16.08;100.00;101528.44;5032959;28;20041;-51
2022/05/29 06:10:54;;;;;;;8.90;3.30;;;;;;;16.19;100.00;101530.47;5032610;28;20276;-53
2022/05/29 06:13:20;;;;;;;11.50;4.07;;;;;;;16.62;100.00;101534.31;5029266;28;20076;-53
2022/05/29 06:15:46;;;;;;;11.20;3.72;;;;;;;16.45;100.00;101534.03;5019600;28;20037;-51
2022/05/29 06:18:13;;;;;;;15.40;3.88;;;;;;;16.24;100.00;101535.19;5020212;28;20046;-50
2022/05/29 06:20:39;;;;;;;11.50;4.03;;;;;;;16.65;100.00;101532.22;5032693;28;20037;-51
2022/05/29 06:23:05;;;;;;;9.77;3.50;;;;;;;16.77;100.00;101534.00;5017100;28;20272;-53
2022/05/29 06:25:30;;;;;;;13.97;3.73;;;;;;;16.76;100.00;101532.34;5026651;28;20037;-53
2022/05/29 06:27:56;;;;;;;12.03;3.73;;;;;;;16.50;100.00;101536.09;5026291;28;20288;-53
2022/05/29 06:30:22;;;;;;;16.38;4.30;;;;;;;16.60;100.00;101535.56;5032555;28;20297;-53
2022/05/29 06:32:47;;;;;;;11.93;3.50;;;;;;;16.29;100.00;101531.84;5032241;28;20106;-55
2022/05/29 06:35:15;;;;;;;11.33;3.63;;;;;;;16.30;100.00;101526.25;5017073;28;20276;-54
2022/05/29 06:37:41;;;;;;;13.07;3.60;;;;;;;16.28;100.00;101528.34;5033525;28;20280;-54
2022/05/29 06:40:09;;;;;;;10.25;3.90;;;;;;;16.52;100.00;101534.00;5009477;28;20300;-53
2022/05/29 06:42:35;;;;;;;10.10;4.00;;;;;;;16.44;100.00;101537.78;5021257;28;20120;-57
2022/05/29 06:45:03;;;;;;;11.40;3.47;;;;;;;16.60;100.00;101530.19;5032031;28;20276;-57
2022/05/29 06:47:29;;;;;;;10.27;3.20;;;;;;;16.88;100.00;101529.75;5032215;28;20103;-57
2022/05/29 06:49:54;;;;;;;14.75;3.58;;;;;;;17.02;100.00;101529.69;5031908;28;20284;-56
2022/05/29 06:52:20;;;;;;;22.83;5.20;;;;;;;17.12;100.00;101534.59;5022075;28;20124;-55
2022/05/29 06:54:46;;;;;;;13.13;3.53;;;;;;;17.28;100.00;101530.47;5005236;28;20351;-55
2022/05/29 06:57:12;;;;;;;11.70;3.80;;;;;;;17.26;100.00;101530.69;5025236;28;20022;-56
2022/05/29 07:08:01;;;;;;;12.47;3.33;;;;;;;17.73;100.00;101530.19;5031053;28;20283;-55
2022/05/29 07:10:29;;;;;;;12.93;3.90;;;;;;;17.54;100.00;101532.06;5031102;28;20281;-53
2022/05/29 07:12:56;;;;;;;13.27;3.33;;;;;;;17.77;100.00;101528.66;5031525;28;20290;-54
2022/05/29 07:15:22;;;;;;;11.80;3.50;;;;;;;17.97;100.00;101532.16;5014599;28;20283;-55
2022/05/29 07:17:48;;;;;;;14.95;3.03;;;;;;;18.11;100.00;101532.88;5011276;28;20295;-56
2022/05/29 07:20:16;;;;;;;16.90;3.00;;;;;;;17.98;100.00;101523.00;5026182;28;20083;-54
2022/05/29 07:22:42;;;;;;;11.53;2.90;;;;;;;18.14;100.00;101522.41;5031426;28;20117;-53
2022/05/29 07:25:09;;;;;;;11.03;3.10;;;;;;;18.28;100.00;101522.22;5015923;28;20292;-55
2022/05/29 07:27:35;;;;;;;15.90;3.33;;;;;;;18.48;100.00;101522.75;5031400;28;20275;-54
2022/05/29 07:30:00;;;;;;;16.80;2.80;;;;;;;18.18;100.00;101522.78;5031641;28;20338;-54
2022/05/29 07:32:26;;;;;;;9.98;2.85;;;;;;;18.37;100.00;101523.53;5031308;28;20057;-56
2022/05/29 07:34:52;;;;;;;7.70;2.75;;;;;;;18.88;100.00;101521.28;5017703;28;20067;-54
2022/05/29 07:37:18;;;;;;;11.40;3.20;;;;;;;19.10;100.00;101522.59;5012294;28;20034;-52
2022/05/29 07:39:46;;;;;;;8.00;2.53;;;;;;;18.97;100.00;101518.19;5030900;28;20085;-52
2022/05/29 07:44:59;;;;;;;11.50;2.60;;;;;;;18.94;100.00;101519.50;5026218;28;20317;-56
2022/05/29 07:47:29;;;;;;;11.20;3.17;;;;;;;18.87;100.00;101518.78;5030600;28;20291;-56
2022/05/29 07:49:58;;;;;;;11.57;3.10;;;;;;;18.63;100.00;101526.88;5024709;28;20363;-55
2022/05/29 07:52:25;;;;;;;10.10;3.07;;;;;;;17.73;100.00;101515.81;5020286;28;20389;-56
2022/05/29 07:54:52;;;;;;;8.43;2.97;;;;;;;17.92;100.00;101513.94;5030702;28;20282;-55
2022/05/29 07:57:18;;;;;;;8.83;2.53;;;;;;;17.57;100.00;101507.28;5014375;28;20290;-53
2022/05/29 07:59:43;;;;;;;10.02;1.92;;;;;;;17.97;100.00;101513.22;5026164;28;20343;-57
2022/05/29 08:02:09;;;;;;;9.02;3.55;;;;;;;17.60;100.00;101504.13;5019576;28;20111;-55
2022/05/29 08:04:35;;;;;;;7.50;3.00;;;;;;;18.00;100.00;101510.09;5029694;28;20075;-53
2022/05/29 08:07:00;;;;;;;8.48;2.60;;;;;;;18.32;100.00;101510.69;5009373;28;20043;-50
2022/05/29 08:09:26;;;;;;;9.05;2.35;;;;;;;18.33;100.00;101509.63;5022541;28;20052;-55
2022/05/29 08:11:51;;;;;;;7.80;2.88;;;;;;;19.43;100.00;101502.19;5018709;28;20049;-54
2022/05/29 08:14:17;;;;;;;5.13;1.80;;;;;;;18.52;100.00;101506.84;5021825;28;20044;-53
2022/05/29 08:16:42;;;;;;;8.93;1.88;;;;;;;18.09;100.00;101503.31;5024086;28;20030;-52
2022/05/29 08:19:09;;;;;;;11.30;2.30;;;;;;;18.45;100.00;101501.56;5010680;28;20034;-56
2022/05/29 08:21:34;;;;;;;;;;;;;;;19.05;100.00;101499.72;5025314;28;20282;-54
2022/05/29 08:32:13;;;;;;;7.43;2.07;;;;;;;19.40;100.00;101502.66;5016412;28;20287;-55
2022/05/29 08:34:39;;;;;;;14.13;2.40;;;;;;;19.65;100.00;101499.63;5030206;28;20264;-56
2022/05/29 08:37:05;;;;;;;6.63;2.00;;;;;;;19.62;100.00;101497.41;5030443;28;20076;-55
2022/05/29 08:39:32;;;;;;;8.10;2.15;;;;;;;18.96;100.00;101500.28;5029968;28;20056;-56
2022/05/29 08:41:58;;;;;;;7.67;2.17;;;;;;;19.04;100.00;101498.09;5030679;28;20046;-54
2022/05/29 08:44:40;;;;;;;13.73;2.58;;;;;;;18.91;100.00;101495.56;5010451;28;20034;-55
2022/05/29 08:47:06;;;;;;;5.53;2.83;;;;;;;19.28;100.00;101491.84;5023381;28;20154;-52
2022/05/29 08:49:44;;;;;;;4.05;1.70;;;;;;;19.35;100.00;101493.31;5030012;28;20034;-55
2022/05/29 08:52:53;;;;;;;11.10;3.23;;;;;;;19.47;100.00;101489.78;5030233;28;20086;-57
2022/05/29 08:55:25;;;;;;;5.20;2.53;;;;;;;19.24;100.00;101488.75;5027212;28;20045;-54
2022/05/29 08:58:27;;;;;;;11.10;2.63;;;;;;;19.58;100.00;101501.66;5024080;28;20033;-53
2022/05/29 09:01:15;;;;;;;6.20;1.80;;;;;;;19.44;100.00;101492.97;5030323;28;20125;-54
2022/05/29 09:03:43;;;;;;;6.73;1.70;;;;;;;19.42;100.00;101497.81;5030191;28;20030;-57
2022/05/29 09:06:24;;;;;;;6.13;2.13;;;;;;;19.62;100.00;101494.69;5029901;28;20034;-57
2022/05/29 09:09:19;;;;;;;9.43;2.60;;;;;;;19.69;100.00;101489.13;5030141;28;20048;-55
2022/05/29 09:11:56;;;;;;;7.40;2.87;;;;;;;19.80;100.00;101490.97;5029969;28;20037;-54
2022/05/29 09:14:28;;;;;;;8.43;2.13;;;;;;;20.60;100.00;101490.22;5030382;28;20516;-55
2022/05/29 09:17:04;;;;;;;5.00;2.03;;;;;;;21.11;100.00;101478.50;5030105;28;20042;-57
2022/05/29 09:19:43;;;;;;;7.40;2.63;;;;;;;21.25;100.00;101479.78;5030615;28;20040;-55
2022/05/29 09:22:32;;;;;;;10.93;2.53;;;;;;;21.64;100.00;101470.72;5030383;28;20421;-55
2022/05/29 09:25:08;;;;;;;6.13;2.17;;;;;;;21.75;100.00;101475.22;5030979;28;20034;-56
2022/05/29 09:27:36;;;;;;;9.60;2.33;;;;;;;21.62;100.00;101478.31;5029330;28;20050;-57
2022/05/29 09:30:03;;;;;;;8.87;2.60;;;;;;;20.81;100.00;101490.59;5030187;28;20056;-55
2022/05/29 09:32:32;;;;;;;6.90;1.30;;;;;;;20.42;100.00;101488.59;5027997;28;20053;-56
2022/05/29 09:35:04;;;;;;;8.17;1.60;;;;;;;19.89;100.00;101478.69;5032269;28;20030;-54
2022/05/29 09:37:46;;;;;;;5.60;1.60;;;;;;;19.68;100.00;101487.50;5027418;28;20034;-54
2022/05/29 09:40:21;;;;;;;5.17;1.80;;;;;;;18.86;100.00;101481.91;5025108;28;20030;-57
2022/05/29 09:42:48;;;;;;;5.00;1.77;;;;;;;19.03;100.00;101480.19;5030453;28;20048;-55
2022/05/29 09:45:20;;;;;;;5.57;2.00;;;;;;;19.03;100.00;101493.72;5027355;28;20267;-57
2022/05/29 09:50:43;;;;;;;6.93;2.10;;;;;;;19.16;100.00;101489.13;5025753;28;20276;-60
2022/05/29 09:53:20;;;;;;;3.03;1.50;;;;;;;19.45;100.00;101491.91;5031591;28;20279;-55
2022/05/29 09:55:57;;;;;;;5.20;1.57;;;;;;;19.02;100.00;101478.53;5032372;28;20298;-54
2022/05/29 09:58:30;;;;;;;5.68;1.60;;;;;;;18.95;100.00;101480.50;5028738;28;20287;-56
2022/05/29 10:01:03;;;;;;;3.77;1.47;;;;;;;18.98;100.00;101474.66;5028276;28;20033;-55
2022/05/29 10:03:50;;;;;;;18.63;8.63;;;;;;;19.27;100.00;101473.91;5030093;28;20276;-55
2022/05/29 10:06:21;;;;;;;20.35;9.13;;;;;;;19.96;100.00;101481.28;5026773;28;20283;-57
2022/05/29 10:08:47;;;;;;;11.87;5.20;;;;;;;20.75;100.00;101466.00;5027567;28;20042;-56
2022/05/29 10:11:14;;;;;;;4.00;1.67;;;;;;;22.08;100.00;101475.28;5027916;28;20334;-57
2022/05/29 10:13:42;;;;;;;4.53;1.40;;;;;;;23.37;100.00;101477.31;5023007;28;20042;-58
2022/05/29 10:16:09;;;;;;;6.60;2.67;;;;;;;24.23;100.00;101482.47;5029584;28;20034;-58
2022/05/29 10:18:40;;;;;;;8.80;3.20;;;;;;;25.07;100.00;101482.13;5029906;28;20050;-58
2022/05/29 10:21:25;;;;;;;4.97;1.40;;;;;;;26.21;100.00;101478.81;5029221;28;20098;-59
2022/05/29 10:23:58;;;;;;;6.00;2.13;;;;;;;25.39;100.00;101482.81;5028087;28;20038;-59
2022/05/29 10:26:32;;;;;;;5.03;1.63;;;;;;;24.04;100.00;101474.78;5029249;28;20042;-59
2022/05/29 10:29:00;;;;;;;5.07;2.90;;;;;;;25.09;100.00;101468.97;5014356;28;20048;-57
2022/05/29 10:31:38;;;;;;;8.03;2.93;;;;;;;25.03;100.00;101461.88;5030347;28;20046;-58
2022/05/29 10:34:13;;;;;;;2.77;1.00;;;;;;;23.97;100.00;101469.56;5029790;28;20058;-58
2022/05/29 10:36:41;;;;;;;5.93;2.30;;;;;;;23.38;100.00;101477.03;5032062;28;20049;-56
2022/05/29 10:39:25;;;;;;;3.20;1.50;;;;;;;22.64;100.00;101471.44;5031463;28;20038;-57
2022/05/29 10:41:54;;;;;;;5.47;2.87;;;;;;;22.13;100.00;101469.88;5030404;28;20047;-55
2022/05/29 10:44:46;;;;;;;3.50;1.10;;;;;;;21.81;100.00;101470.66;5028194;28;20115;-55
2022/05/29 10:47:28;;;;;;;8.17;3.23;;;;;;;21.31;100.00;101459.72;5030791;28;20034;-58
2022/05/29 10:50:17;;;;;;;6.20;2.07;;;;;;;21.59;100.00;101459.78;5015645;28;20038;-56
2022/05/29 10:53:25;;;;;;;27.63;13.83;;;;;;;22.15;100.00;101464.19;5026539;28;20038;-55
2022/05/29 10:55:58;;;;;;;10.73;3.65;;;;;;;22.64;100.00;101465.97;5024943;28;20067;-57
2022/05/29 10:58:37;;;;;;;20.53;9.10;;;;;;;23.43;100.00;101470.78;5018098;28;20030;-57
2022/05/29 11:04:17;;;;;;;17.67;6.37;;;;;;;25.90;100.00;101473.50;5024615;28;20061;-58
2022/05/29 11:07:21;;;;;;;7.77;1.37;;;;;;;27.03;92.44;101477.25;5020643;28;20042;-59
2022/05/29 11:10:11;;;;;;;10.77;4.90;;;;;;;27.18;85.30;101475.41;5031928;28;20072;-59
2022/05/29 11:13:04;;;;;;;9.88;2.83;;;;;;;27.71;85.42;101463.47;5003653;28;20042;-59
2022/05/29 11:15:48;;;;;;;13.90;3.20;;;;;;;26.68;86.60;101461.94;5029126;28;20057;-59
2022/05/29 11:18:24;;;;;;;7.67;2.87;;;;;;;25.85;90.73;101448.91;5018694;28;20044;-57
2022/05/29 11:21:11;;;;;;;11.57;4.93;;;;;;;24.09;100.00;101458.41;5023731;28;20053;-59
2022/05/29 11:23:54;;;;;;;12.10;3.80;;;;;;;23.23;100.00;101461.38;5020753;28;20027;-57
2022/05/29 11:26:31;;;;;;;11.53;3.43;;;;;;;23.34;100.00;101454.94;5021499;28;20053;-59
2022/05/29 11:29:16;;;;;;;6.97;2.10;;;;;;;23.05;100.00;101454.50;5018299;28;20093;-57
2022/05/29 11:32:00;;;;;;;10.47;1.97;;;;;;;23.25;100.00;101458.41;5017466;28;20058;-58
2022/05/29 11:34:40;;;;;;;7.40;2.33;;;;;;;22.86;100.00;101448.66;5024014;28;20034;-57
2022/05/29 11:37:08;;;;;;;7.67;3.13;;;;;;;22.93;100.00;101446.53;5029034;28;20042;-58
2022/05/29 11:39:40;;;;;;;5.67;1.60;;;;;;;23.10;100.00;101456.44;5029900;28;20042;-56
2022/05/29 11:42:09;;;;;;;9.10;3.40;;;;;;;22.93;100.00;101446.53;5014978;28;20044;-57
2022/05/29 11:44:54;;;;;;;9.17;2.10;;;;;;;23.03;100.00;101440.31;5026918;28;20103;-57
2022/05/29 11:53:49;;;;;;;9.53;1.90;;;;;;;22.96;100.00;101435.09;5031286;28;20030;-58
2022/05/29 11:56:40;;;;;;;8.97;2.77;;;;;;;23.53;100.00;101440.81;5040651;28;20050;-56
2022/05/29 11:59:25;;;;;;;11.33;3.47;;;;;;;23.78;100.00;101440.03;5023273;28;20049;-58
2022/05/29 12:02:01;;;;;;;10.63;4.00;;;;;;;24.31;100.00;101430.00;5031165;28;20049;-58
2022/05/29 12:04:35;;;;;;;10.73;5.18;;;;;;;25.19;93.96;101435.28;5030759;28;20057;-58
2022/05/29 12:07:11;;;;;;;6.27;2.33;;;;;;;25.04;95.71;101430.69;5029387;28;20060;-59
2022/05/29 12:09:55;;;;;;;7.13;2.17;;;;;;;24.92;97.33;101422.81;5025479;28;20045;-58
2022/05/29 12:12:27;;;;;;;9.23;2.70;;;;;;;24.14;100.00;101433.00;5017536;28;20097;-58